sensor_id;sensor_type;location;lat;lon;timestamp;pressure;altitude;pressure_sealevel;temperature;humidity
62697;BME280;48761;42.680;23.312;2023-04-20T00:00:34;94482.09;;;11.69;61.88
62697;BME280;48761;42.680;23.312;2023-04-20T00:03:00;94427.34;;;11.20;61.66
62697;BME280;48761;42.680;23.312;2023-04-20T00:05:26;94472.94;;;11.39;61.60
62697;BME280;48761;42.680;23.312;2023-04-20T00:07:53;94476.81;;;11.35;61.96
62697;BME280;48761;42.680;23.312;2023-04-20T00:10:19;94424.56;;;11.10;62.22
62697;BME280;48761;42.680;23.312;2023-04-20T00:12:45;94430.25;;;11.29;62.08
62697;BME280;48761;42.680;23.312;2023-04-20T00:15:11;94408.38;;;11.14;62.06
62697;BME280;48761;42.680;23.312;2023-04-20T00:17:37;94399.94;;;10.97;62.34
62697;BME280;48761;42.680;23.312;2023-04-20T00:20:03;94441.50;;;11.21;62.53
62697;BME280;48761;42.680;23.312;2023-04-20T00:22:29;94437.63;;;11.14;62.46
62697;BME280;48761;42.680;23.312;2023-04-20T00:24:55;94420.22;;;11.09;62.67
62697;BME280;48761;42.680;23.312;2023-04-20T00:27:21;94426.75;;;11.17;62.66
62697;BME280;48761;42.680;23.312;2023-04-20T00:29:47;94458.56;;;11.30;63.16
62697;BME280;48761;42.680;23.312;2023-04-20T00:32:13;94453.25;;;11.30;62.63
62697;BME280;48761;42.680;23.312;2023-04-20T00:34:39;94391.47;;;10.92;62.74
62697;BME280;48761;42.680;23.312;2023-04-20T00:37:05;94454.56;;;11.24;63.31
62697;BME280;48761;42.680;23.312;2023-04-20T00:39:31;94408.38;;;11.02;62.92
62697;BME280;48761;42.680;23.312;2023-04-20T00:42:05;94457.94;;;11.26;63.72
62697;BME280;48761;42.680;23.312;2023-04-20T00:44:32;94427.59;;;10.94;63.94
62697;BME280;48761;42.680;23.312;2023-04-20T00:46:58;94399.44;;;10.80;63.95
62697;BME280;48761;42.680;23.312;2023-04-20T00:49:27;94434.72;;;10.82;64.68
62697;BME280;48761;42.680;23.312;2023-04-20T00:51:53;94425.03;;;10.58;64.59
62697;BME280;48761;42.680;23.312;2023-04-20T00:54:18;94413.69;;;10.56;64.86
62697;BME280;48761;42.680;23.312;2023-04-20T00:56:45;94456.69;;;10.73;65.01
62697;BME280;48761;42.680;23.312;2023-04-20T00:59:11;94447.66;;;10.75;65.08
62697;BME280;48761;42.680;23.312;2023-04-20T01:01:37;94425.28;;;10.67;64.97
62697;BME280;48761;42.680;23.312;2023-04-20T01:04:03;94450.94;;;10.79;65.12
62697;BME280;48761;42.680;23.312;2023-04-20T01:06:29;94439.94;;;10.84;65.63
62697;BME280;48761;42.680;23.312;2023-04-20T01:08:55;94450.59;;;11.07;65.17
62697;BME280;48761;42.680;23.312;2023-04-20T01:11:21;94440.78;;;10.96;65.28
62697;BME280;48761;42.680;23.312;2023-04-20T01:13:47;94448.50;;;11.10;64.79
62697;BME280;48761;42.680;23.312;2023-04-20T01:16:13;94460.84;;;10.89;65.64
62697;BME280;48761;42.680;23.312;2023-04-20T01:18:46;94448.59;;;10.74;66.23
62697;BME280;48761;42.680;23.312;2023-04-20T01:21:15;94415.03;;;10.37;66.57
62697;BME280;48761;42.680;23.312;2023-04-20T01:23:41;94453.09;;;10.74;66.38
62697;BME280;48761;42.680;23.312;2023-04-20T01:26:08;94455.28;;;10.92;66.08
62697;BME280;48761;42.680;23.312;2023-04-20T01:28:34;94420.81;;;10.56;66.44
62697;BME280;48761;42.680;23.312;2023-04-20T01:31:05;94418.63;;;10.72;66.22
62697;BME280;48761;42.680;23.312;2023-04-20T01:33:31;94428.19;;;10.75;65.75
62697;BME280;48761;42.680;23.312;2023-04-20T01:35:57;94448.97;;;10.93;65.58
62697;BME280;48761;42.680;23.312;2023-04-20T01:38:23;94443.91;;;10.90;65.57
62697;BME280;48761;42.680;23.312;2023-04-20T01:40:50;94406.28;;;10.60;66.18
62697;BME280;48761;42.680;23.312;2023-04-20T01:43:18;94436.06;;;10.88;66.44
62697;BME280;48761;42.680;23.312;2023-04-20T01:45:45;94423.00;;;10.85;66.10
62697;BME280;48761;42.680;23.312;2023-04-20T01:48:10;94411.03;;;10.91;66.09
62697;BME280;48761;42.680;23.312;2023-04-20T01:50:36;94360.28;;;10.82;65.77
62697;BME280;48761;42.680;23.312;2023-04-20T01:53:02;94366.44;;;10.83;65.54
62697;BME280;48761;42.680;23.312;2023-04-20T01:55:29;94408.38;;;11.02;65.02
62697;BME280;48761;42.680;23.312;2023-04-20T01:57:57;94441.50;;;11.21;64.98
62697;BME280;48761;42.680;23.312;2023-04-20T02:00:24;94359.53;;;10.80;65.26
62697;BME280;48761;42.680;23.312;2023-04-20T02:02:50;94370.19;;;10.92;64.78
62697;BME280;48761;42.680;23.312;2023-04-20T02:05:16;94353.50;;;10.55;65.66
62697;BME280;48761;42.680;23.312;2023-04-20T02:07:42;94361.50;;;10.67;65.51
62697;BME280;48761;42.680;23.312;2023-04-20T02:10:08;94363.19;;;10.68;65.88
62697;BME280;48761;42.680;23.312;2023-04-20T02:12:35;94350.31;;;10.50;65.95
62697;BME280;48761;42.680;23.312;2023-04-20T02:15:08;94380.94;;;10.56;66.02
62697;BME280;48761;42.680;23.312;2023-04-20T02:17:37;94424.34;;;10.79;66.14
62697;BME280;48761;42.680;23.312;2023-04-20T02:20:03;94421.66;;;10.68;66.58
62697;BME280;48761;42.680;23.312;2023-04-20T02:22:30;94399.94;;;10.74;66.30
62697;BME280;48761;42.680;23.312;2023-04-20T02:24:56;94384.66;;;10.64;66.30
62697;BME280;48761;42.680;23.312;2023-04-20T02:27:22;94425.44;;;11.00;66.20
62697;BME280;48761;42.680;23.312;2023-04-20T02:29:48;94358.78;;;10.43;66.72
62697;BME280;48761;42.680;23.312;2023-04-20T02:32:14;94415.72;;;10.52;67.24
62697;BME280;48761;42.680;23.312;2023-04-20T02:34:40;94413.59;;;10.45;67.50
62697;BME280;48761;42.680;23.312;2023-04-20T02:37:05;94425.25;;;10.55;67.62
62697;BME280;48761;42.680;23.312;2023-04-20T02:39:31;94410.31;;;10.29;67.76
62697;BME280;48761;42.680;23.312;2023-04-20T02:41:57;94408.38;;;10.31;67.82
62697;BME280;48761;42.680;23.312;2023-04-20T02:44:23;94433.47;;;10.52;67.91
62697;BME280;48761;42.680;23.312;2023-04-20T02:46:49;94429.63;;;10.56;67.91
62697;BME280;48761;42.680;23.312;2023-04-20T02:49:15;94399.44;;;10.21;67.93
62697;BME280;48761;42.680;23.312;2023-04-20T02:51:41;94396.44;;;10.37;67.34
62697;BME280;48761;42.680;23.312;2023-04-20T02:54:07;94430.84;;;10.63;67.37
62697;BME280;48761;42.680;23.312;2023-04-20T02:56:33;94381.50;;;10.36;66.91
62697;BME280;48761;42.680;23.312;2023-04-20T02:58:59;94398.47;;;10.58;66.69
62697;BME280;48761;42.680;23.312;2023-04-20T03:01:25;94436.31;;;10.96;65.94
62697;BME280;48761;42.680;23.312;2023-04-20T03:03:51;94433.78;;;11.06;65.68
62697;BME280;48761;42.680;23.312;2023-04-20T03:06:17;94371.63;;;10.73;65.29
62697;BME280;48761;42.680;23.312;2023-04-20T03:08:43;94418.88;;;10.92;65.75
62697;BME280;48761;42.680;23.312;2023-04-20T03:11:08;94362.44;;;10.65;65.77
62697;BME280;48761;42.680;23.312;2023-04-20T03:13:35;94412.94;;;10.77;65.79
62697;BME280;48761;42.680;23.312;2023-04-20T03:16:00;94429.88;;;10.76;66.38
62697;BME280;48761;42.680;23.312;2023-04-20T03:18:26;94410.78;;;10.71;66.58
62697;BME280;48761;42.680;23.312;2023-04-20T03:20:52;94418.28;;;10.65;66.22
62697;BME280;48761;42.680;23.312;2023-04-20T03:23:18;94417.69;;;10.73;66.31
62697;BME280;48761;42.680;23.312;2023-04-20T03:25:44;94426.88;;;10.81;66.15
62697;BME280;48761;42.680;23.312;2023-04-20T03:28:10;94422.28;;;10.71;66.23
62697;BME280;48761;42.680;23.312;2023-04-20T03:30:36;94411.25;;;10.64;66.12
62697;BME280;48761;42.680;23.312;2023-04-20T03:33:03;94377.13;;;10.47;66.09
62697;BME280;48761;42.680;23.312;2023-04-20T03:35:28;94423.59;;;10.54;66.36
62697;BME280;48761;42.680;23.312;2023-04-20T03:37:54;94429.03;;;10.75;66.22
62697;BME280;48761;42.680;23.312;2023-04-20T03:40:20;94383.72;;;10.54;65.82
62697;BME280;48761;42.680;23.312;2023-04-20T03:42:46;94433.03;;;10.93;65.67
62697;BME280;48761;42.680;23.312;2023-04-20T03:45:12;94384.22;;;10.71;65.26
62697;BME280;48761;42.680;23.312;2023-04-20T03:47:38;94378.63;;;10.62;65.67
62697;BME280;48761;42.680;23.312;2023-04-20T03:50:08;94355.88;;;10.24;65.80
62697;BME280;48761;42.680;23.312;2023-04-20T03:52:34;94423.38;;;10.92;65.24
62697;BME280;48761;42.680;23.312;2023-04-20T03:55:00;94411.78;;;10.81;64.98
62697;BME280;48761;42.680;23.312;2023-04-20T03:57:35;94403.06;;;10.79;64.93
62697;BME280;48761;42.680;23.312;2023-04-20T04:00:11;94398.72;;;10.67;65.21
62697;BME280;48761;42.680;23.312;2023-04-20T04:02:39;94410.06;;;10.69;65.28
62697;BME280;48761;42.680;23.312;2023-04-20T04:05:06;94424.69;;;10.86;65.21
62697;BME280;48761;42.680;23.312;2023-04-20T04:07:32;94405.34;;;10.61;65.45
62697;BME280;48761;42.680;23.312;2023-04-20T04:09:58;94432.31;;;10.79;65.73
62697;BME280;48761;42.680;23.312;2023-04-20T04:12:24;94436.19;;;10.86;65.50
62697;BME280;48761;42.680;23.312;2023-04-20T04:15:02;94419.34;;;10.63;65.18
62697;BME280;48761;42.680;23.312;2023-04-20T04:17:37;94380.53;;;10.49;65.41
62697;BME280;48761;42.680;23.312;2023-04-20T04:20:11;94380.31;;;10.52;64.67
62697;BME280;48761;42.680;23.312;2023-04-20T04:22:51;94379.91;;;10.34;65.13
62697;BME280;48761;42.680;23.312;2023-04-20T04:25:54;94441.47;;;10.75;64.84
62697;BME280;48761;42.680;23.312;2023-04-20T04:28:21;94442.09;;;10.79;65.20
62697;BME280;48761;42.680;23.312;2023-04-20T04:30:47;94448.13;;;10.81;65.13
62697;BME280;48761;42.680;23.312;2023-04-20T04:33:13;94421.78;;;10.78;65.18
62697;BME280;48761;42.680;23.312;2023-04-20T04:35:40;94385.59;;;10.40;64.97
62697;BME280;48761;42.680;23.312;2023-04-20T04:38:06;94434.97;;;10.79;66.25
62697;BME280;48761;42.680;23.312;2023-04-20T04:40:39;94454.91;;;10.85;64.89
62697;BME280;48761;42.680;23.312;2023-04-20T04:43:05;94457.09;;;11.03;64.90
62697;BME280;48761;42.680;23.312;2023-04-20T04:45:31;94419.59;;;10.83;64.69
62697;BME280;48761;42.680;23.312;2023-04-20T04:47:57;94452.97;;;10.98;64.95
62697;BME280;48761;42.680;23.312;2023-04-20T04:50:23;94423.94;;;10.72;65.06
62697;BME280;48761;42.680;23.312;2023-04-20T04:52:50;94397.09;;;10.52;65.11
62697;BME280;48761;42.680;23.312;2023-04-20T04:55:18;94445.00;;;10.98;64.53
62697;BME280;48761;42.680;23.312;2023-04-20T04:57:45;94448.75;;;10.84;64.59
62697;BME280;48761;42.680;23.312;2023-04-20T05:00:12;94445.84;;;10.76;64.84
62697;BME280;48761;42.680;23.312;2023-04-20T05:02:38;94428.91;;;10.65;64.64
62697;BME280;48761;42.680;23.312;2023-04-20T05:05:08;94410.03;;;10.57;64.87
62697;BME280;48761;42.680;23.312;2023-04-20T05:07:35;94440.28;;;10.79;65.21
62697;BME280;48761;42.680;23.312;2023-04-20T05:10:01;94444.13;;;10.75;65.00
62697;BME280;48761;42.680;23.312;2023-04-20T05:12:28;94454.41;;;10.68;65.37
62697;BME280;48761;42.680;23.312;2023-04-20T05:14:54;94436.16;;;10.63;65.20
62697;BME280;48761;42.680;23.312;2023-04-20T05:17:20;94477.75;;;10.76;65.46
62697;BME280;48761;42.680;23.312;2023-04-20T05:19:46;94467.97;;;10.76;66.21
62697;BME280;48761;42.680;23.312;2023-04-20T05:22:13;94451.50;;;10.71;65.55
62697;BME280;48761;42.680;23.312;2023-04-20T05:24:47;94404.78;;;10.44;65.21
62697;BME280;48761;42.680;23.312;2023-04-20T05:27:17;94479.19;;;10.80;65.51
62697;BME280;48761;42.680;23.312;2023-04-20T05:29:43;94454.53;;;10.78;65.26
62697;BME280;48761;42.680;23.312;2023-04-20T05:32:09;94474.63;;;11.17;64.86
62697;BME280;48761;42.680;23.312;2023-04-20T05:34:35;94476.69;;;11.02;65.25
62697;BME280;48761;42.680;23.312;2023-04-20T05:37:03;94450.66;;;10.82;65.47
62697;BME280;48761;42.680;23.312;2023-04-20T05:39:29;94478.97;;;10.83;65.68
62697;BME280;48761;42.680;23.312;2023-04-20T05:41:58;94444.09;;;10.52;66.69
62697;BME280;48761;42.680;23.312;2023-04-20T05:44:24;94469.88;;;10.74;67.11
62697;BME280;48761;42.680;23.312;2023-04-20T05:46:50;94470.72;;;10.75;67.00
62697;BME280;48761;42.680;23.312;2023-04-20T05:49:16;94485.72;;;10.87;67.05
62697;BME280;48761;42.680;23.312;2023-04-20T05:51:41;94483.78;;;10.90;66.95
62697;BME280;48761;42.680;23.312;2023-04-20T05:54:07;94465.66;;;10.83;66.93
62697;BME280;48761;42.680;23.312;2023-04-20T05:56:33;94470.25;;;10.93;66.42
62697;BME280;48761;42.680;23.312;2023-04-20T05:58:59;94478.22;;;10.93;66.73
62697;BME280;48761;42.680;23.312;2023-04-20T06:01:26;94486.25;;;11.04;66.53
62697;BME280;48761;42.680;23.312;2023-04-20T06:03:51;94480.44;;;11.10;66.63
62697;BME280;48761;42.680;23.312;2023-04-20T06:06:17;94471.25;;;11.03;67.17
62697;BME280;48761;42.680;23.312;2023-04-20T06:08:43;94481.41;;;11.09;67.78
62697;BME280;48761;42.680;23.312;2023-04-20T06:11:10;94478.00;;;10.96;68.47
62697;BME280;48761;42.680;23.312;2023-04-20T06:13:36;94482.59;;;11.05;68.26
62697;BME280;48761;42.680;23.312;2023-04-20T06:16:01;94480.66;;;10.96;68.88
62697;BME280;48761;42.680;23.312;2023-04-20T06:18:27;94468.69;;;10.90;69.11
62697;BME280;48761;42.680;23.312;2023-04-20T06:20:53;94493.59;;;11.01;70.11
62697;BME280;48761;42.680;23.312;2023-04-20T06:23:19;94478.00;;;10.96;69.39
62697;BME280;48761;42.680;23.312;2023-04-20T06:25:45;94449.22;;;10.90;68.88
62697;BME280;48761;42.680;23.312;2023-04-20T06:28:11;94498.09;;;11.12;68.83
62697;BME280;48761;42.680;23.312;2023-04-20T06:30:37;94480.16;;;11.02;68.56
62697;BME280;48761;42.680;23.312;2023-04-20T06:33:03;94486.84;;;10.96;68.63
62697;BME280;48761;42.680;23.312;2023-04-20T06:35:29;94467.38;;;10.84;68.93
62697;BME280;48761;42.680;23.312;2023-04-20T06:37:55;94448.38;;;10.78;69.40
62697;BME280;48761;42.680;23.312;2023-04-20T06:40:25;94495.41;;;11.00;68.58
62697;BME280;48761;42.680;23.312;2023-04-20T06:42:51;94495.28;;;10.90;68.88
62697;BME280;48761;42.680;23.312;2023-04-20T06:45:17;94492.78;;;11.12;68.45
62697;BME280;48761;42.680;23.312;2023-04-20T06:47:43;94471.84;;;11.07;68.40
62697;BME280;48761;42.680;23.312;2023-04-20T06:50:09;94510.41;;;11.01;68.63
62697;BME280;48761;42.680;23.312;2023-04-20T06:52:36;94503.03;;;11.05;68.28
62697;BME280;48761;42.680;23.312;2023-04-20T06:55:02;94506.41;;;10.84;69.75
62697;BME280;48761;42.680;23.312;2023-04-20T06:57:28;94514.47;;;10.82;71.07
62697;BME280;48761;42.680;23.312;2023-04-20T06:59:55;94460.72;;;10.42;71.96
62697;BME280;48761;42.680;23.312;2023-04-20T07:02:21;94505.50;;;10.60;72.45
62697;BME280;48761;42.680;23.312;2023-04-20T07:04:47;94480.63;;;10.61;71.65
62697;BME280;48761;42.680;23.312;2023-04-20T07:07:14;94509.91;;;10.84;71.93
62697;BME280;48761;42.680;23.312;2023-04-20T07:09:40;94444.63;;;10.69;71.43
62697;BME280;48761;42.680;23.312;2023-04-20T07:12:06;94489.31;;;10.75;71.42
62697;BME280;48761;42.680;23.312;2023-04-20T07:14:32;94476.28;;;10.72;71.31
62697;BME280;48761;42.680;23.312;2023-04-20T07:16:57;94490.34;;;10.97;71.70
62697;BME280;48761;42.680;23.312;2023-04-20T07:19:23;94485.75;;;11.10;71.10
62697;BME280;48761;42.680;23.312;2023-04-20T07:21:49;94518.88;;;11.18;71.34
62697;BME280;48761;42.680;23.312;2023-04-20T07:24:15;94440.88;;;10.83;71.03
62697;BME280;48761;42.680;23.312;2023-04-20T07:26:42;94487.81;;;11.18;70.07
62697;BME280;48761;42.680;23.312;2023-04-20T07:29:08;94467.63;;;11.16;70.10
62697;BME280;48761;42.680;23.312;2023-04-20T07:31:34;94514.66;;;11.61;68.71
62697;BME280;48761;42.680;23.312;2023-04-20T07:34:00;94453.81;;;11.34;68.31
62697;BME280;48761;42.680;23.312;2023-04-20T07:36:25;94512.47;;;11.66;67.89
62697;BME280;48761;42.680;23.312;2023-04-20T07:38:55;94449.59;;;11.42;67.68
62697;BME280;48761;42.680;23.312;2023-04-20T07:41:22;94453.44;;;11.50;67.65
62697;BME280;48761;42.680;23.312;2023-04-20T07:43:47;94504.09;;;11.71;67.42
62697;BME280;48761;42.680;23.312;2023-04-20T07:46:22;94485.47;;;11.71;66.73
62697;BME280;48761;42.680;23.312;2023-04-20T07:48:48;94516.47;;;11.72;66.27
62697;BME280;48761;42.680;23.312;2023-04-20T07:51:14;94503.63;;;11.77;66.09
62697;BME280;48761;42.680;23.312;2023-04-20T07:53:41;94500.88;;;12.12;65.21
62697;BME280;48761;42.680;23.312;2023-04-20T07:56:07;94500.56;;;12.38;64.81
62697;BME280;48761;42.680;23.312;2023-04-20T07:58:33;94502.59;;;12.46;63.83
62697;BME280;48761;42.680;23.312;2023-04-20T08:00:59;94512.88;;;12.72;62.77
62697;BME280;48761;42.680;23.312;2023-04-20T08:03:25;94483.72;;;12.59;63.02
62697;BME280;48761;42.680;23.312;2023-04-20T08:05:51;94479.72;;;12.65;62.54
62697;BME280;48761;42.680;23.312;2023-04-20T08:08:17;94502.22;;;12.72;62.65
62697;BME280;48761;42.680;23.312;2023-04-20T08:10:43;94510.28;;;13.04;62.72
62697;BME280;48761;42.680;23.312;2023-04-20T08:13:09;94509.78;;;13.20;61.51
62697;BME280;48761;42.680;23.312;2023-04-20T08:15:35;94486.97;;;12.84;61.61
62697;BME280;48761;42.680;23.312;2023-04-20T08:18:02;94450.50;;;12.20;62.31
62697;BME280;48761;42.680;23.312;2023-04-20T08:20:28;94521.66;;;12.84;62.35
62697;BME280;48761;42.680;23.312;2023-04-20T08:22:54;94491.34;;;12.42;62.08
62697;BME280;48761;42.680;23.312;2023-04-20T08:25:21;94436.75;;;11.92;63.19
62697;BME280;48761;42.680;23.312;2023-04-20T08:27:47;94490.03;;;12.37;62.95
62697;BME280;48761;42.680;23.312;2023-04-20T08:30:23;94477.13;;;12.20;62.46
62697;BME280;48761;42.680;23.312;2023-04-20T08:32:49;94498.63;;;12.40;63.62
62697;BME280;48761;42.680;23.312;2023-04-20T08:35:15;94488.31;;;12.69;63.40
62697;BME280;48761;42.680;23.312;2023-04-20T08:37:41;94516.25;;;12.53;62.41
62697;BME280;48761;42.680;23.312;2023-04-20T08:40:07;94521.13;;;12.69;62.25
62697;BME280;48761;42.680;23.312;2023-04-20T08:42:33;94493.03;;;12.65;62.31
62697;BME280;48761;42.680;23.312;2023-04-20T08:44:59;94520.03;;;12.93;62.07
62697;BME280;48761;42.680;23.312;2023-04-20T08:47:26;94452.78;;;12.47;61.12
62697;BME280;48761;42.680;23.312;2023-04-20T08:49:53;94484.84;;;12.35;62.14
62697;BME280;48761;42.680;23.312;2023-04-20T08:52:19;94508.97;;;12.55;61.95
62697;BME280;48761;42.680;23.312;2023-04-20T08:54:45;94461.88;;;12.11;61.95
62697;BME280;48761;42.680;23.312;2023-04-20T08:57:11;94528.56;;;12.65;61.82
62697;BME280;48761;42.680;23.312;2023-04-20T08:59:37;94520.88;;;12.51;62.17
62697;BME280;48761;42.680;23.312;2023-04-20T09:02:11;94497.94;;;12.27;61.84
62697;BME280;48761;42.680;23.312;2023-04-20T09:04:43;94517.28;;;12.62;62.33
62697;BME280;48761;42.680;23.312;2023-04-20T09:07:19;94486.09;;;12.52;61.66
62697;BME280;48761;42.680;23.312;2023-04-20T09:10:01;94507.22;;;12.65;61.67
62697;BME280;48761;42.680;23.312;2023-04-20T09:12:27;94522.56;;;12.95;60.84
62697;BME280;48761;42.680;23.312;2023-04-20T09:14:54;94522.56;;;12.95;60.35
62697;BME280;48761;42.680;23.312;2023-04-20T09:17:33;94511.84;;;12.63;61.31
62697;BME280;48761;42.680;23.312;2023-04-20T09:19:59;94490.88;;;12.37;61.81
62697;BME280;48761;42.680;23.312;2023-04-20T09:22:34;94518.41;;;12.59;61.64
62697;BME280;48761;42.680;23.312;2023-04-20T09:25:16;94519.22;;;12.71;61.53
62697;BME280;48761;42.680;23.312;2023-04-20T09:27:53;94517.53;;;12.92;61.56
62697;BME280;48761;42.680;23.312;2023-04-20T09:30:20;94498.50;;;13.06;61.05
62697;BME280;48761;42.680;23.312;2023-04-20T09:32:46;94477.16;;;13.06;60.30
62697;BME280;48761;42.680;23.312;2023-04-20T09:35:39;94446.59;;;13.20;59.31
62697;BME280;48761;42.680;23.312;2023-04-20T09:38:11;94505.53;;;13.70;58.53
62697;BME280;48761;42.680;23.312;2023-04-20T09:40:39;94504.47;;;13.83;58.44
62697;BME280;48761;42.680;23.312;2023-04-20T09:43:26;94479.88;;;13.89;58.22
62697;BME280;48761;42.680;23.312;2023-04-20T09:46:29;94444.28;;;13.98;57.44
62697;BME280;48761;42.680;23.312;2023-04-20T09:48:53;94438.13;;;14.08;56.48
62697;BME280;48761;42.680;23.312;2023-04-20T09:51:56;94495.41;;;14.55;56.78
62697;BME280;48761;42.680;23.312;2023-04-20T09:55:21;94466.81;;;14.75;55.94
62697;BME280;48761;42.680;23.312;2023-04-20T10:01:34;94490.03;;;14.95;54.58
62697;BME280;48761;42.680;23.312;2023-04-20T10:04:12;94472.16;;;14.75;55.41
62697;BME280;48761;42.680;23.312;2023-04-20T10:06:38;94476.09;;;14.81;55.27
62697;BME280;48761;42.680;23.312;2023-04-20T10:09:06;94460.88;;;14.72;55.36
62697;BME280;48761;42.680;23.312;2023-04-20T10:11:36;94414.19;;;14.56;54.87
62697;BME280;48761;42.680;23.312;2023-04-20T10:14:24;94478.25;;;15.26;54.26
62697;BME280;48761;42.680;23.312;2023-04-20T10:17:06;94473.19;;;15.61;53.53
62697;BME280;48761;42.680;23.312;2023-04-20T10:19:43;94474.84;;;15.33;52.99
62697;BME280;48761;42.680;23.312;2023-04-20T10:22:12;94435.34;;;15.07;53.17
62697;BME280;48761;42.680;23.312;2023-04-20T10:24:44;94461.72;;;15.40;53.35
62697;BME280;48761;42.680;23.312;2023-04-20T10:27:17;94464.47;;;15.87;52.58
62697;BME280;48761;42.680;23.312;2023-04-20T10:29:43;94458.31;;;15.76;52.52
62697;BME280;48761;42.680;23.312;2023-04-20T10:32:20;94442.41;;;15.93;51.71
62697;BME280;48761;42.680;23.312;2023-04-20T10:34:46;94409.81;;;16.16;51.07
62697;BME280;48761;42.680;23.312;2023-04-20T10:37:15;94440.88;;;16.82;49.95
62697;BME280;48761;42.680;23.312;2023-04-20T10:39:45;94435.00;;;16.78;49.67
62697;BME280;48761;42.680;23.312;2023-04-20T10:42:12;94432.84;;;16.64;49.00
62697;BME280;48761;42.680;23.312;2023-04-20T10:44:52;94466.34;;;17.05;48.28
62697;BME280;48761;42.680;23.312;2023-04-20T10:47:29;94466.34;;;16.78;49.10
62697;BME280;48761;42.680;23.312;2023-04-20T10:50:09;94462.72;;;17.14;48.07
62697;BME280;48761;42.680;23.312;2023-04-20T10:52:37;94449.97;;;16.89;48.33
62697;BME280;48761;42.680;23.312;2023-04-20T10:55:06;94435.84;;;17.06;48.73
62697;BME280;48761;42.680;23.312;2023-04-20T10:57:44;94438.34;;;16.80;48.45
62697;BME280;48761;42.680;23.312;2023-04-20T11:00:20;94466.44;;;16.68;48.48
62697;BME280;48761;42.680;23.312;2023-04-20T11:02:53;94440.44;;;16.68;48.23
62697;BME280;48761;42.680;23.312;2023-04-20T11:05:20;94439.81;;;16.75;48.38
62697;BME280;48761;42.680;23.312;2023-04-20T11:07:53;94428.53;;;16.71;48.76
62697;BME280;48761;42.680;23.312;2023-04-20T11:10:21;94407.50;;;16.58;48.56
62697;BME280;48761;42.680;23.312;2023-04-20T11:12:50;94445.09;;;16.85;48.86
62697;BME280;48761;42.680;23.312;2023-04-20T11:15:16;94427.22;;;16.94;48.81
62697;BME280;48761;42.680;23.312;2023-04-20T11:17:42;94453.03;;;16.95;49.13
62697;BME280;48761;42.680;23.312;2023-04-20T11:20:13;94443.22;;;17.03;48.98
62697;BME280;48761;42.680;23.312;2023-04-20T11:22:40;94446.44;;;16.89;47.60
62697;BME280;48761;42.680;23.312;2023-04-20T11:25:08;94402.00;;;16.41;46.68
62697;BME280;48761;42.680;23.312;2023-04-20T11:30:11;94384.13;;;15.95;48.68
62697;BME280;48761;42.680;23.312;2023-04-20T11:32:38;94429.19;;;16.28;48.70
62697;BME280;48761;42.680;23.312;2023-04-20T11:35:07;94431.38;;;16.24;49.04
62697;BME280;48761;42.680;23.312;2023-04-20T11:37:50;94424.94;;;16.17;49.12
62697;BME280;48761;42.680;23.312;2023-04-20T11:40:16;94420.38;;;16.36;49.37
62697;BME280;48761;42.680;23.312;2023-04-20T11:42:42;94428.22;;;16.47;48.91
62697;BME280;48761;42.680;23.312;2023-04-20T11:45:09;94434.56;;;16.46;48.73
62697;BME280;48761;42.680;23.312;2023-04-20T11:47:35;94433.28;;;16.51;48.29
62697;BME280;48761;42.680;23.312;2023-04-20T11:50:01;94411.06;;;16.40;47.43
62697;BME280;48761;42.680;23.312;2023-04-20T11:52:27;94424.00;;;16.27;47.88
62697;BME280;48761;42.680;23.312;2023-04-20T11:54:54;94366.47;;;15.84;48.09
62697;BME280;48761;42.680;23.312;2023-04-20T11:57:23;94363.31;;;15.89;48.08
62697;BME280;48761;42.680;23.312;2023-04-20T11:59:52;94364.91;;;15.82;48.22
62697;BME280;48761;42.680;23.312;2023-04-20T12:02:18;94410.16;;;16.03;48.76
62697;BME280;48761;42.680;23.312;2023-04-20T12:04:44;94366.97;;;15.88;48.27
62697;BME280;48761;42.680;23.312;2023-04-20T12:07:10;94388.66;;;15.95;48.60
62697;BME280;48761;42.680;23.312;2023-04-20T12:09:40;94371.41;;;15.61;49.08
62697;BME280;48761;42.680;23.312;2023-04-20T12:12:27;94403.75;;;15.49;50.13
62697;BME280;48761;42.680;23.312;2023-04-20T12:17:55;94398.66;;;14.70;52.27
62697;BME280;48761;42.680;23.312;2023-04-20T12:20:22;94399.16;;;14.45;53.49
62697;BME280;48761;42.680;23.312;2023-04-20T12:22:51;94376.22;;;14.32;53.21
62697;BME280;48761;42.680;23.312;2023-04-20T12:25:20;94382.66;;;14.50;53.41
62697;BME280;48761;42.680;23.312;2023-04-20T12:27:46;94383.25;;;14.43;53.38
62697;BME280;48761;42.680;23.312;2023-04-20T12:30:21;94426.84;;;14.54;54.43
62697;BME280;48761;42.680;23.312;2023-04-20T12:33:07;94395.38;;;14.28;54.47
62697;BME280;48761;42.680;23.312;2023-04-20T12:35:35;94359.09;;;14.15;54.51
62697;BME280;48761;42.680;23.312;2023-04-20T12:38:02;94370.03;;;14.32;53.52
62697;BME280;48761;42.680;23.312;2023-04-20T12:40:27;94421.50;;;14.34;54.26
62697;BME280;48761;42.680;23.312;2023-04-20T12:42:53;94412.75;;;14.72;53.19
62697;BME280;48761;42.680;23.312;2023-04-20T12:45:19;94403.47;;;14.76;53.20
62697;BME280;48761;42.680;23.312;2023-04-20T12:47:45;94406.22;;;14.94;53.22
62697;BME280;48761;42.680;23.312;2023-04-20T12:50:12;94403.63;;;15.12;53.09
62697;BME280;48761;42.680;23.312;2023-04-20T12:52:38;94411.69;;;15.41;52.57
62697;BME280;48761;42.680;23.312;2023-04-20T12:55:05;94382.91;;;15.43;51.06
62697;BME280;48761;42.680;23.312;2023-04-20T12:57:33;94371.31;;;15.52;51.72
62697;BME280;48761;42.680;23.312;2023-04-20T12:59:59;94377.97;;;15.48;52.47
62697;BME280;48761;42.680;23.312;2023-04-20T13:02:25;94371.63;;;15.49;52.37
62697;BME280;48761;42.680;23.312;2023-04-20T13:04:52;94352.47;;;15.44;52.34